sensor_id;sensor_type;location;lat;lon;timestamp;temperature;humidity
16814;DHT22;8524;57.650;11.926;2023-05-19T00:02:16;4.90;99.90
16814;DHT22;8524;57.650;11.926;2023-05-19T00:04:45;4.80;99.90
16814;DHT22;8524;57.650;11.926;2023-05-19T00:07:17;4.70;99.90
16814;DHT22;8524;57.650;11.926;2023-05-19T00:09:45;4.70;99.90
16814;DHT22;8524;57.650;11.926;2023-05-19T00:12:13;4.70;99.90
16814;DHT22;8524;57.650;11.926;2023-05-19T00:14:40;4.70;99.90
16814;DHT22;8524;57.650;11.926;2023-05-19T00:17:08;4.70;99.90
16814;DHT22;8524;57.650;11.926;2023-05-19T00:19:35;4.60;99.90
16814;DHT22;8524;57.650;11.926;2023-05-19T00:22:03;4.50;99.90
16814;DHT22;8524;57.650;11.926;2023-05-19T00:24:32;4.50;99.90
16814;DHT22;8524;57.650;11.926;2023-05-19T00:26:59;4.50;99.90
16814;DHT22;8524;57.650;11.926;2023-05-19T00:29:26;4.50;99.90
16814;DHT22;8524;57.650;11.926;2023-05-19T00:31:53;4.50;99.90
16814;DHT22;8524;57.650;11.926;2023-05-19T00:34:20;4.50;99.90
16814;DHT22;8524;57.650;11.926;2023-05-19T00:36:46;4.50;99.90
16814;DHT22;8524;57.650;11.926;2023-05-19T00:39:13;4.50;99.90
16814;DHT22;8524;57.650;11.926;2023-05-19T00:41:42;4.50;99.90
16814;DHT22;8524;57.650;11.926;2023-05-19T00:44:09;4.40;99.90
16814;DHT22;8524;57.650;11.926;2023-05-19T00:46:36;4.40;99.90
16814;DHT22;8524;57.650;11.926;2023-05-19T00:49:03;4.40;99.90
16814;DHT22;8524;57.650;11.926;2023-05-19T00:51:30;4.30;99.90
16814;DHT22;8524;57.650;11.926;2023-05-19T00:53:57;4.40;99.90
16814;DHT22;8524;57.650;11.926;2023-05-19T00:56:24;4.30;99.90
16814;DHT22;8524;57.650;11.926;2023-05-19T00:58:54;4.20;99.90
16814;DHT22;8524;57.650;11.926;2023-05-19T01:01:21;4.20;99.90
16814;DHT22;8524;57.650;11.926;2023-05-19T01:03:48;4.20;99.90
16814;DHT22;8524;57.650;11.926;2023-05-19T01:06:15;4.20;99.90
16814;DHT22;8524;57.650;11.926;2023-05-19T01:08:43;4.10;99.90
16814;DHT22;8524;57.650;11.926;2023-05-19T01:11:11;4.20;99.90
16814;DHT22;8524;57.650;11.926;2023-05-19T01:13:38;4.10;99.90
16814;DHT22;8524;57.650;11.926;2023-05-19T01:16:11;4.10;99.90
16814;DHT22;8524;57.650;11.926;2023-05-19T01:18:45;4.10;99.90
16814;DHT22;8524;57.650;11.926;2023-05-19T01:24:23;4.20;99.90
16814;DHT22;8524;57.650;11.926;2023-05-19T01:27:13;4.10;99.90
16814;DHT22;8524;57.650;11.926;2023-05-19T01:32:53;4.00;99.90
16814;DHT22;8524;57.650;11.926;2023-05-19T01:35:22;4.00;99.90
16814;DHT22;8524;57.650;11.926;2023-05-19T01:37:52;3.80;99.90
16814;DHT22;8524;57.650;11.926;2023-05-19T01:40:21;3.80;99.90
16814;DHT22;8524;57.650;11.926;2023-05-19T01:42:48;3.80;99.90
16814;DHT22;8524;57.650;11.926;2023-05-19T01:45:17;3.70;99.90
16814;DHT22;8524;57.650;11.926;2023-05-19T01:47:47;3.60;99.90
16814;DHT22;8524;57.650;11.926;2023-05-19T01:50:16;3.60;99.90
16814;DHT22;8524;57.650;11.926;2023-05-19T01:52:43;3.70;99.90
16814;DHT22;8524;57.650;11.926;2023-05-19T01:55:10;3.70;99.90
16814;DHT22;8524;57.650;11.926;2023-05-19T01:57:45;3.70;99.90
16814;DHT22;8524;57.650;11.926;2023-05-19T02:00:20;3.50;99.90
16814;DHT22;8524;57.650;11.926;2023-05-19T02:02:58;3.50;99.90
16814;DHT22;8524;57.650;11.926;2023-05-19T02:05:39;3.50;99.90
16814;DHT22;8524;57.650;11.926;2023-05-19T02:08:12;3.50;99.90
16814;DHT22;8524;57.650;11.926;2023-05-19T02:10:40;3.50;99.90
16814;DHT22;8524;57.650;11.926;2023-05-19T02:13:13;3.50;99.90
16814;DHT22;8524;57.650;11.926;2023-05-19T02:15:44;3.60;99.90
16814;DHT22;8524;57.650;11.926;2023-05-19T02:18:13;3.60;99.90
16814;DHT22;8524;57.650;11.926;2023-05-19T02:20:43;3.50;99.90
16814;DHT22;8524;57.650;11.926;2023-05-19T02:23:10;3.50;99.90
16814;DHT22;8524;57.650;11.926;2023-05-19T02:25:37;3.50;99.90
16814;DHT22;8524;57.650;11.926;2023-05-19T02:28:04;3.50;99.90
16814;DHT22;8524;57.650;11.926;2023-05-19T02:30:32;3.50;99.90
16814;DHT22;8524;57.650;11.926;2023-05-19T02:32:59;3.40;99.90
16814;DHT22;8524;57.650;11.926;2023-05-19T02:35:26;3.40;99.90
16814;DHT22;8524;57.650;11.926;2023-05-19T02:37:55;3.40;99.90
16814;DHT22;8524;57.650;11.926;2023-05-19T02:40:22;3.40;99.90
16814;DHT22;8524;57.650;11.926;2023-05-19T02:42:49;3.40;99.90
16814;DHT22;8524;57.650;11.926;2023-05-19T02:45:16;3.50;99.90
16814;DHT22;8524;57.650;11.926;2023-05-19T02:47:43;3.50;99.90
16814;DHT22;8524;57.650;11.926;2023-05-19T02:50:10;3.40;99.90
16814;DHT22;8524;57.650;11.926;2023-05-19T02:52:37;3.40;99.90
16814;DHT22;8524;57.650;11.926;2023-05-19T02:55:06;3.40;99.90
16814;DHT22;8524;57.650;11.926;2023-05-19T02:57:34;3.40;99.90
16814;DHT22;8524;57.650;11.926;2023-05-19T03:00:01;3.40;99.90
16814;DHT22;8524;57.650;11.926;2023-05-19T03:02:30;3.40;99.90
16814;DHT22;8524;57.650;11.926;2023-05-19T03:04:57;3.40;99.90
16814;DHT22;8524;57.650;11.926;2023-05-19T03:07:26;3.50;99.90
16814;DHT22;8524;57.650;11.926;2023-05-19T03:09:53;3.60;99.90
16814;DHT22;8524;57.650;11.926;2023-05-19T03:12:21;3.60;99.90
16814;DHT22;8524;57.650;11.926;2023-05-19T03:14:49;3.60;99.90
16814;DHT22;8524;57.650;11.926;2023-05-19T03:17:16;3.60;99.90
16814;DHT22;8524;57.650;11.926;2023-05-19T03:19:43;3.60;99.90
16814;DHT22;8524;57.650;11.926;2023-05-19T03:22:10;3.60;99.90
16814;DHT22;8524;57.650;11.926;2023-05-19T03:24:37;3.60;99.90
16814;DHT22;8524;57.650;11.926;2023-05-19T03:27:04;3.60;99.90
16814;DHT22;8524;57.650;11.926;2023-05-19T03:29:32;3.70;99.90
16814;DHT22;8524;57.650;11.926;2023-05-19T03:32:00;3.80;99.90
16814;DHT22;8524;57.650;11.926;2023-05-19T03:34:27;3.90;99.90
16814;DHT22;8524;57.650;11.926;2023-05-19T03:36:54;3.90;99.90
16814;DHT22;8524;57.650;11.926;2023-05-19T03:39:21;3.90;99.90
16814;DHT22;8524;57.650;11.926;2023-05-19T03:41:48;3.90;99.90
16814;DHT22;8524;57.650;11.926;2023-05-19T03:44:15;4.00;99.90
16814;DHT22;8524;57.650;11.926;2023-05-19T03:46:43;4.10;99.90
16814;DHT22;8524;57.650;11.926;2023-05-19T03:49:10;4.20;99.90
16814;DHT22;8524;57.650;11.926;2023-05-19T03:51:38;4.20;99.90
16814;DHT22;8524;57.650;11.926;2023-05-19T03:54:05;4.40;99.90
16814;DHT22;8524;57.650;11.926;2023-05-19T03:56:33;4.40;99.90
16814;DHT22;8524;57.650;11.926;2023-05-19T03:59:00;4.50;99.90
16814;DHT22;8524;57.650;11.926;2023-05-19T04:01:27;4.50;99.90
16814;DHT22;8524;57.650;11.926;2023-05-19T04:03:55;4.60;99.90
16814;DHT22;8524;57.650;11.926;2023-05-19T04:06:22;4.70;99.90
16814;DHT22;8524;57.650;11.926;2023-05-19T04:08:49;4.90;99.90
16814;DHT22;8524;57.650;11.926;2023-05-19T04:11:16;4.90;99.90
16814;DHT22;8524;57.650;11.926;2023-05-19T04:13:44;4.90;99.90
16814;DHT22;8524;57.650;11.926;2023-05-19T04:16:11;5.10;99.90
16814;DHT22;8524;57.650;11.926;2023-05-19T04:18:38;5.10;99.90
16814;DHT22;8524;57.650;11.926;2023-05-19T04:21:07;5.30;99.90
16814;DHT22;8524;57.650;11.926;2023-05-19T04:23:34;5.50;99.90
16814;DHT22;8524;57.650;11.926;2023-05-19T04:26:01;5.70;99.90
16814;DHT22;8524;57.650;11.926;2023-05-19T04:28:28;5.90;99.90
16814;DHT22;8524;57.650;11.926;2023-05-19T04:30:55;6.10;99.90
16814;DHT22;8524;57.650;11.926;2023-05-19T04:33:23;6.20;99.90
16814;DHT22;8524;57.650;11.926;2023-05-19T04:35:50;6.40;99.90
16814;DHT22;8524;57.650;11.926;2023-05-19T04:38:18;6.50;99.90
16814;DHT22;8524;57.650;11.926;2023-05-19T04:40:46;6.60;99.90
16814;DHT22;8524;57.650;11.926;2023-05-19T04:43:14;6.80;99.90
16814;DHT22;8524;57.650;11.926;2023-05-19T04:45:42;7.00;99.90
16814;DHT22;8524;57.650;11.926;2023-05-19T04:48:09;7.20;99.90
16814;DHT22;8524;57.650;11.926;2023-05-19T04:50:37;7.40;99.90
16814;DHT22;8524;57.650;11.926;2023-05-19T04:53:07;7.60;99.90
16814;DHT22;8524;57.650;11.926;2023-05-19T04:55:36;7.70;99.90
16814;DHT22;8524;57.650;11.926;2023-05-19T04:58:04;7.80;99.90
16814;DHT22;8524;57.650;11.926;2023-05-19T05:00:31;8.00;99.90
16814;DHT22;8524;57.650;11.926;2023-05-19T05:03:00;8.10;99.90
16814;DHT22;8524;57.650;11.926;2023-05-19T05:05:29;8.30;99.90
16814;DHT22;8524;57.650;11.926;2023-05-19T05:07:57;8.40;99.90
16814;DHT22;8524;57.650;11.926;2023-05-19T05:10:24;8.50;99.90
16814;DHT22;8524;57.650;11.926;2023-05-19T05:12:53;8.60;99.90
16814;DHT22;8524;57.650;11.926;2023-05-19T05:15:21;8.70;99.90
16814;DHT22;8524;57.650;11.926;2023-05-19T05:17:49;8.80;99.90
16814;DHT22;8524;57.650;11.926;2023-05-19T05:20:17;8.90;99.90
16814;DHT22;8524;57.650;11.926;2023-05-19T05:22:46;9.00;99.90
16814;DHT22;8524;57.650;11.926;2023-05-19T05:25:14;9.20;99.90
16814;DHT22;8524;57.650;11.926;2023-05-19T05:27:42;9.40;99.90
16814;DHT22;8524;57.650;11.926;2023-05-19T05:30:11;9.60;99.90
16814;DHT22;8524;57.650;11.926;2023-05-19T05:32:38;9.80;99.90
16814;DHT22;8524;57.650;11.926;2023-05-19T05:35:05;10.00;99.90
16814;DHT22;8524;57.650;11.926;2023-05-19T05:37:32;10.20;99.90
16814;DHT22;8524;57.650;11.926;2023-05-19T05:39:59;10.40;99.90
16814;DHT22;8524;57.650;11.926;2023-05-19T05:42:26;10.60;99.90
16814;DHT22;8524;57.650;11.926;2023-05-19T05:44:53;10.90;99.90
16814;DHT22;8524;57.650;11.926;2023-05-19T05:47:22;11.20;99.90
16814;DHT22;8524;57.650;11.926;2023-05-19T05:49:50;11.60;99.90
16814;DHT22;8524;57.650;11.926;2023-05-19T05:52:17;11.90;99.90
16814;DHT22;8524;57.650;11.926;2023-05-19T05:54:47;12.30;99.90
16814;DHT22;8524;57.650;11.926;2023-05-19T05:57:14;12.60;99.90
16814;DHT22;8524;57.650;11.926;2023-05-19T05:59:41;12.80;99.90
16814;DHT22;8524;57.650;11.926;2023-05-19T06:02:09;13.00;99.90
16814;DHT22;8524;57.650;11.926;2023-05-19T06:04:38;13.20;99.90
16814;DHT22;8524;57.650;11.926;2023-05-19T06:07:05;13.40;99.90
16814;DHT22;8524;57.650;11.926;2023-05-19T06:09:32;13.50;99.90
16814;DHT22;8524;57.650;11.926;2023-05-19T06:11:59;13.50;99.90
16814;DHT22;8524;57.650;11.926;2023-05-19T06:14:26;13.80;99.90
16814;DHT22;8524;57.650;11.926;2023-05-19T06:16:53;14.00;99.90
16814;DHT22;8524;57.650;11.926;2023-05-19T06:19:20;14.10;99.90
16814;DHT22;8524;57.650;11.926;2023-05-19T06:21:51;14.50;99.90
16814;DHT22;8524;57.650;11.926;2023-05-19T06:24:18;14.60;99.90
16814;DHT22;8524;57.650;11.926;2023-05-19T06:26:45;14.90;99.90
16814;DHT22;8524;57.650;11.926;2023-05-19T06:29:12;15.00;99.90
16814;DHT22;8524;57.650;11.926;2023-05-19T06:31:39;15.20;99.90
16814;DHT22;8524;57.650;11.926;2023-05-19T06:34:06;15.40;99.90
16814;DHT22;8524;57.650;11.926;2023-05-19T06:36:34;15.50;99.90
16814;DHT22;8524;57.650;11.926;2023-05-19T06:39:03;15.60;99.90
16814;DHT22;8524;57.650;11.926;2023-05-19T06:41:30;15.70;99.90
16814;DHT22;8524;57.650;11.926;2023-05-19T06:43:57;15.60;99.90
16814;DHT22;8524;57.650;11.926;2023-05-19T06:46:24;15.70;99.90
16814;DHT22;8524;57.650;11.926;2023-05-19T06:48:51;15.70;99.90
16814;DHT22;8524;57.650;11.926;2023-05-19T06:51:18;15.70;99.90
16814;DHT22;8524;57.650;11.926;2023-05-19T06:53:46;15.80;99.90
16814;DHT22;8524;57.650;11.926;2023-05-19T06:56:15;16.20;99.90
16814;DHT22;8524;57.650;11.926;2023-05-19T06:58:43;16.40;99.90
16814;DHT22;8524;57.650;11.926;2023-05-19T07:01:10;16.40;99.90
16814;DHT22;8524;57.650;11.926;2023-05-19T07:03:37;16.40;99.90
16814;DHT22;8524;57.650;11.926;2023-05-19T07:06:04;16.50;99.90
16814;DHT22;8524;57.650;11.926;2023-05-19T07:08:31;16.70;99.90
16814;DHT22;8524;57.650;11.926;2023-05-19T07:10:59;16.80;99.90
16814;DHT22;8524;57.650;11.926;2023-05-19T07:13:27;16.60;99.90
16814;DHT22;8524;57.650;11.926;2023-05-19T07:15:54;16.50;99.90
16814;DHT22;8524;57.650;11.926;2023-05-19T07:18:21;16.50;99.90
16814;DHT22;8524;57.650;11.926;2023-05-19T07:20:48;16.40;99.90
16814;DHT22;8524;57.650;11.926;2023-05-19T07:23:17;16.50;99.90
16814;DHT22;8524;57.650;11.926;2023-05-19T07:25:44;16.80;99.90
16814;DHT22;8524;57.650;11.926;2023-05-19T07:28:11;17.00;99.90
16814;DHT22;8524;57.650;11.926;2023-05-19T07:30:39;17.30;99.90
16814;DHT22;8524;57.650;11.926;2023-05-19T07:33:06;17.50;99.90
16814;DHT22;8524;57.650;11.926;2023-05-19T07:35:33;17.60;99.90
16814;DHT22;8524;57.650;11.926;2023-05-19T07:38:00;17.60;99.90
16814;DHT22;8524;57.650;11.926;2023-05-19T07:40:27;17.70;99.90
16814;DHT22;8524;57.650;11.926;2023-05-19T07:42:54;17.80;99.90
16814;DHT22;8524;57.650;11.926;2023-05-19T07:45:22;18.10;99.90
16814;DHT22;8524;57.650;11.926;2023-05-19T07:47:51;18.30;99.90
16814;DHT22;8524;57.650;11.926;2023-05-19T07:50:19;18.20;99.90
16814;DHT22;8524;57.650;11.926;2023-05-19T07:52:46;18.30;99.90
16814;DHT22;8524;57.650;11.926;2023-05-19T07:55:13;18.40;99.90
16814;DHT22;8524;57.650;11.926;2023-05-19T07:57:40;18.50;99.90
16814;DHT22;8524;57.650;11.926;2023-05-19T08:00:08;18.40;99.90
16814;DHT22;8524;57.650;11.926;2023-05-19T08:02:37;18.50;99.90
16814;DHT22;8524;57.650;11.926;2023-05-19T08:05:06;18.50;99.90
16814;DHT22;8524;57.650;11.926;2023-05-19T08:07:33;18.30;99.90
16814;DHT22;8524;57.650;11.926;2023-05-19T08:10:01;18.20;99.90
16814;DHT22;8524;57.650;11.926;2023-05-19T08:12:28;18.30;99.90
16814;DHT22;8524;57.650;11.926;2023-05-19T08:14:55;18.50;99.90
16814;DHT22;8524;57.650;11.926;2023-05-19T08:17:22;18.60;99.90
16814;DHT22;8524;57.650;11.926;2023-05-19T08:19:49;18.60;99.90
16814;DHT22;8524;57.650;11.926;2023-05-19T08:22:17;18.00;99.90
16814;DHT22;8524;57.650;11.926;2023-05-19T08:24:44;18.40;99.90
16814;DHT22;8524;57.650;11.926;2023-05-19T08:27:14;18.30;99.90
16814;DHT22;8524;57.650;11.926;2023-05-19T08:29:41;18.40;99.90
16814;DHT22;8524;57.650;11.926;2023-05-19T08:32:08;18.70;99.90
16814;DHT22;8524;57.650;11.926;2023-05-19T08:34:35;18.80;99.90
16814;DHT22;8524;57.650;11.926;2023-05-19T08:37:02;18.80;99.90
16814;DHT22;8524;57.650;11.926;2023-05-19T08:39:30;18.70;99.90
16814;DHT22;8524;57.650;11.926;2023-05-19T08:41:59;18.90;99.90
16814;DHT22;8524;57.650;11.926;2023-05-19T08:44:26;19.10;99.90
16814;DHT22;8524;57.650;11.926;2023-05-19T08:46:55;19.00;99.90
16814;DHT22;8524;57.650;11.926;2023-05-19T08:49:26;19.00;99.90
16814;DHT22;8524;57.650;11.926;2023-05-19T08:52:01;19.00;99.90
16814;DHT22;8524;57.650;11.926;2023-05-19T08:54:39;19.00;99.90
16814;DHT22;8524;57.650;11.926;2023-05-19T08:57:08;19.00;99.90
16814;DHT22;8524;57.650;11.926;2023-05-19T08:59:37;19.20;99.90
16814;DHT22;8524;57.650;11.926;2023-05-19T09:02:05;19.00;99.90
16814;DHT22;8524;57.650;11.926;2023-05-19T09:04:33;18.40;99.90
16814;DHT22;8524;57.650;11.926;2023-05-19T09:07:01;18.60;99.90
16814;DHT22;8524;57.650;11.926;2023-05-19T09:09:29;18.60;99.90
16814;DHT22;8524;57.650;11.926;2023-05-19T09:11:57;18.60;99.90
16814;DHT22;8524;57.650;11.926;2023-05-19T09:14:24;18.70;99.90
16814;DHT22;8524;57.650;11.926;2023-05-19T09:16:52;18.60;99.90
16814;DHT22;8524;57.650;11.926;2023-05-19T09:19:19;18.40;99.90
16814;DHT22;8524;57.650;11.926;2023-05-19T09:21:57;18.30;99.90
16814;DHT22;8524;57.650;11.926;2023-05-19T09:24:24;18.30;99.90
16814;DHT22;8524;57.650;11.926;2023-05-19T09:26:54;18.20;99.90
16814;DHT22;8524;57.650;11.926;2023-05-19T09:29:23;18.10;99.90
16814;DHT22;8524;57.650;11.926;2023-05-19T09:31:51;18.10;99.90
16814;DHT22;8524;57.650;11.926;2023-05-19T09:34:19;18.20;99.90
16814;DHT22;8524;57.650;11.926;2023-05-19T09:36:47;18.50;99.90
16814;DHT22;8524;57.650;11.926;2023-05-19T09:39:16;18.80;99.90
16814;DHT22;8524;57.650;11.926;2023-05-19T09:41:44;19.20;99.90
16814;DHT22;8524;57.650;11.926;2023-05-19T09:44:21;19.50;99.90
16814;DHT22;8524;57.650;11.926;2023-05-19T09:46:50;19.70;99.90
16814;DHT22;8524;57.650;11.926;2023-05-19T09:49:21;20.20;99.90
16814;DHT22;8524;57.650;11.926;2023-05-19T09:51:50;20.40;99.90
16814;DHT22;8524;57.650;11.926;2023-05-19T09:54:19;20.30;99.90
16814;DHT22;8524;57.650;11.926;2023-05-19T09:56:51;20.00;99.90
16814;DHT22;8524;57.650;11.926;2023-05-19T09:59:19;20.20;99.90
16814;DHT22;8524;57.650;11.926;2023-05-19T10:01:52;20.30;99.90
16814;DHT22;8524;57.650;11.926;2023-05-19T10:04:20;20.40;99.90
16814;DHT22;8524;57.650;11.926;2023-05-19T10:06:49;20.00;99.90
16814;DHT22;8524;57.650;11.926;2023-05-19T10:09:21;20.00;99.90
16814;DHT22;8524;57.650;11.926;2023-05-19T10:11:50;20.20;99.90
16814;DHT22;8524;57.650;11.926;2023-05-19T10:14:20;20.30;99.90
16814;DHT22;8524;57.650;11.926;2023-05-19T10:16:51;20.20;99.90
16814;DHT22;8524;57.650;11.926;2023-05-19T10:19:20;20.30;99.90
16814;DHT22;8524;57.650;11.926;2023-05-19T10:21:47;20.30;99.90
16814;DHT22;8524;57.650;11.926;2023-05-19T10:24:14;20.10;99.90
16814;DHT22;8524;57.650;11.926;2023-05-19T10:26:44;20.30;99.90
16814;DHT22;8524;57.650;11.926;2023-05-19T10:29:14;20.10;99.90
16814;DHT22;8524;57.650;11.926;2023-05-19T10:31:43;20.20;99.90
16814;DHT22;8524;57.650;11.926;2023-05-19T10:34:35;20.00;99.90
16814;DHT22;8524;57.650;11.926;2023-05-19T10:37:12;20.40;99.90
16814;DHT22;8524;57.650;11.926;2023-05-19T10:39:42;20.40;99.90
16814;DHT22;8524;57.650;11.926;2023-05-19T10:42:14;20.30;99.90
16814;DHT22;8524;57.650;11.926;2023-05-19T10:44:52;20.60;99.90
16814;DHT22;8524;57.650;11.926;2023-05-19T10:47:24;20.70;99.90
16814;DHT22;8524;57.650;11.926;2023-05-19T10:49:53;20.30;99.90
16814;DHT22;8524;57.650;11.926;2023-05-19T10:52:21;20.70;99.90
16814;DHT22;8524;57.650;11.926;2023-05-19T10:54:50;20.70;99.90
16814;DHT22;8524;57.650;11.926;2023-05-19T10:57:20;20.60;99.90
16814;DHT22;8524;57.650;11.926;2023-05-19T10:59:50;20.30;99.90
16814;DHT22;8524;57.650;11.926;2023-05-19T11:02:35;20.30;99.90
16814;DHT22;8524;57.650;11.926;2023-05-19T11:05:08;20.40;99.90
16814;DHT22;8524;57.650;11.926;2023-05-19T11:07:35;20.00;99.80
16814;DHT22;8524;57.650;11.926;2023-05-19T11:10:06;19.90;99.90
16814;DHT22;8524;57.650;11.926;2023-05-19T11:12:44;20.00;99.90
16814;DHT22;8524;57.650;11.926;2023-05-19T11:15:13;20.10;99.90
16814;DHT22;8524;57.650;11.926;2023-05-19T11:17:41;19.80;99.90
16814;DHT22;8524;57.650;11.926;2023-05-19T11:20:21;19.40;99.90
16814;DHT22;8524;57.650;11.926;2023-05-19T11:23:05;19.60;99.90
16814;DHT22;8524;57.650;11.926;2023-05-19T11:25:42;20.00;99.90
16814;DHT22;8524;57.650;11.926;2023-05-19T11:28:10;20.70;99.90
16814;DHT22;8524;57.650;11.926;2023-05-19T11:30:40;20.80;99.90
16814;DHT22;8524;57.650;11.926;2023-05-19T11:33:07;20.90;99.90
16814;DHT22;8524;57.650;11.926;2023-05-19T11:35:36;20.90;99.90
16814;DHT22;8524;57.650;11.926;2023-05-19T11:38:05;20.60;99.90
16814;DHT22;8524;57.650;11.926;2023-05-19T11:40:32;20.70;99.70
16814;DHT22;8524;57.650;11.926;2023-05-19T11:42:59;20.40;99.90
16814;DHT22;8524;57.650;11.926;2023-05-19T11:45:28;20.40;99.90
16814;DHT22;8524;57.650;11.926;2023-05-19T11:47:57;20.40;99.90
16814;DHT22;8524;57.650;11.926;2023-05-19T11:50:25;20.50;99.90
16814;DHT22;8524;57.650;11.926;2023-05-19T11:52:54;20.40;99.90
16814;DHT22;8524;57.650;11.926;2023-05-19T11:55:21;20.50;99.90
16814;DHT22;8524;57.650;11.926;2023-05-19T11:57:59;20.70;99.90
16814;DHT22;8524;57.650;11.926;2023-05-19T12:00:27;21.00;99.90
16814;DHT22;8524;57.650;11.926;2023-05-19T12:02:55;21.00;99.90
16814;DHT22;8524;57.650;11.926;2023-05-19T12:05:24;21.00;99.90
16814;DHT22;8524;57.650;11.926;2023-05-19T12:07:53;21.00;99.90
16814;DHT22;8524;57.650;11.926;2023-05-19T12:10:22;21.10;99.90
16814;DHT22;8524;57.650;11.926;2023-05-19T12:12:49;21.30;99.90
16814;DHT22;8524;57.650;11.926;2023-05-19T12:15:18;21.10;99.90
16814;DHT22;8524;57.650;11.926;2023-05-19T12:17:48;20.70;99.90
16814;DHT22;8524;57.650;11.926;2023-05-19T12:20:16;20.90;99.90
16814;DHT22;8524;57.650;11.926;2023-05-19T12:22:43;20.80;99.90
16814;DHT22;8524;57.650;11.926;2023-05-19T12:25:12;21.10;99.90
16814;DHT22;8524;57.650;11.926;2023-05-19T12:27:42;21.20;99.90
16814;DHT22;8524;57.650;11.926;2023-05-19T12:30:10;21.20;99.90
16814;DHT22;8524;57.650;11.926;2023-05-19T12:32:38;21.20;99.90
16814;DHT22;8524;57.650;11.926;2023-05-19T12:35:06;21.10;99.40
16814;DHT22;8524;57.650;11.926;2023-05-19T12:37:33;21.40;98.50
16814;DHT22;8524;57.650;11.926;2023-05-19T12:40:01;20.60;96.80
16814;DHT22;8524;57.650;11.926;2023-05-19T12:42:30;20.60;99.90
16814;DHT22;8524;57.650;11.926;2023-05-19T12:44:58;20.70;99.90
16814;DHT22;8524;57.650;11.926;2023-05-19T12:47:29;21.30;99.90
16814;DHT22;8524;57.650;11.926;2023-05-19T12:50:01;21.40;94.20
16814;DHT22;8524;57.650;11.926;2023-05-19T12:52:30;21.30;92.10
16814;DHT22;8524;57.650;11.926;2023-05-19T12:55:02;21.30;93.10
16814;DHT22;8524;57.650;11.926;2023-05-19T12:57:34;21.60;98.30
16814;DHT22;8524;57.650;11.926;2023-05-19T13:00:03;21.60;97.40
16814;DHT22;8524;57.650;11.926;2023-05-19T13:02:32;21.70;91.30
16814;DHT22;8524;57.650;11.926;2023-05-19T13:05:00;21.80;92.20
16814;DHT22;8524;57.650;11.926;2023-05-19T13:07:27;21.90;92.00
16814;DHT22;8524;57.650;11.926;2023-05-19T13:09:54;21.40;85.80
16814;DHT22;8524;57.650;11.926;2023-05-19T13:12:21;21.40;92.60
16814;DHT22;8524;57.650;11.926;2023-05-19T13:14:50;21.20;91.70
16814;DHT22;8524;57.650;11.926;2023-05-19T13:17:17;21.10;94.20
16814;DHT22;8524;57.650;11.926;2023-05-19T13:19:45;20.90;91.50
16814;DHT22;8524;57.650;11.926;2023-05-19T13:22:12;20.60;93.70
16814;DHT22;8524;57.650;11.926;2023-05-19T13:24:39;20.30;94.40
16814;DHT22;8524;57.650;11.926;2023-05-19T13:27:06;20.20;97.00
16814;DHT22;8524;57.650;11.926;2023-05-19T13:29:33;20.30;98.20
16814;DHT22;8524;57.650;11.926;2023-05-19T13:32:01;20.30;95.90
16814;DHT22;8524;57.650;11.926;2023-05-19T13:34:28;20.30;93.50
16814;DHT22;8524;57.650;11.926;2023-05-19T13:36:55;20.30;97.10
16814;DHT22;8524;57.650;11.926;2023-05-19T13:39:22;20.30;94.70
16814;DHT22;8524;57.650;11.926;2023-05-19T13:41:49;20.30;95.40
16814;DHT22;8524;57.650;11.926;2023-05-19T13:44:16;20.30;97.60
16814;DHT22;8524;57.650;11.926;2023-05-19T13:46:43;20.30;97.00
16814;DHT22;8524;57.650;11.926;2023-05-19T13:49:11;20.30;95.30
16814;DHT22;8524;57.650;11.926;2023-05-19T13:51:40;20.60;94.80
16814;DHT22;8524;57.650;11.926;2023-05-19T13:54:07;20.80;94.70
16814;DHT22;8524;57.650;11.926;2023-05-19T13:56:34;20.70;94.60
16814;DHT22;8524;57.650;11.926;2023-05-19T13:59:02;20.90;95.50
16814;DHT22;8524;57.650;11.926;2023-05-19T14:01:29;20.80;95.40
16814;DHT22;8524;57.650;11.926;2023-05-19T14:03:57;20.60;93.70
16814;DHT22;8524;57.650;11.926;2023-05-19T14:06:25;20.40;96.30
16814;DHT22;8524;57.650;11.926;2023-05-19T14:08:52;20.50;95.60
16814;DHT22;8524;57.650;11.926;2023-05-19T14:11:20;20.60;94.90
16814;DHT22;8524;57.650;11.926;2023-05-19T14:13:47;20.40;95.10
16814;DHT22;8524;57.650;11.926;2023-05-19T14:16:15;20.40;94.60
16814;DHT22;8524;57.650;11.926;2023-05-19T14:18:42;20.30;92.90
16814;DHT22;8524;57.650;11.926;2023-05-19T14:21:09;20.30;90.90
16814;DHT22;8524;57.650;11.926;2023-05-19T14:23:37;20.10;91.70
16814;DHT22;8524;57.650;11.926;2023-05-19T14:26:04;20.10;93.10
16814;DHT22;8524;57.650;11.926;2023-05-19T14:28:31;20.00;88.90
16814;DHT22;8524;57.650;11.926;2023-05-19T14:30:58;19.80;95.00
16814;DHT22;8524;57.650;11.926;2023-05-19T14:33:25;19.70;93.90
16814;DHT22;8524;57.650;11.926;2023-05-19T14:35:52;20.20;92.60
16814;DHT22;8524;57.650;11.926;2023-05-19T14:38:19;20.20;87.00
16814;DHT22;8524;57.650;11.926;2023-05-19T14:40:48;20.00;90.10
16814;DHT22;8524;57.650;11.926;2023-05-19T14:43:15;20.00;88.70
16814;DHT22;8524;57.650;11.926;2023-05-19T14:45:42;20.10;90.60
16814;DHT22;8524;57.650;11.926;2023-05-19T14:48:09;19.90;89.60
16814;DHT22;8524;57.650;11.926;2023-05-19T14:50:37;20.20;92.90
16814;DHT22;8524;57.650;11.926;2023-05-19T14:53:04;20.50;92.20
16814;DHT22;8524;57.650;11.926;2023-05-19T14:55:31;20.20;86.10
16814;DHT22;8524;57.650;11.926;2023-05-19T14:58:00;20.30;88.70
16814;DHT22;8524;57.650;11.926;2023-05-19T15:00:27;19.50;90.60
16814;DHT22;8524;57.650;11.926;2023-05-19T15:02:54;19.60;93.20
16814;DHT22;8524;57.650;11.926;2023-05-19T15:05:21;19.60;91.90
16814;DHT22;8524;57.650;11.926;2023-05-19T15:07:48;19.60;91.40
16814;DHT22;8524;57.650;11.926;2023-05-19T15:10:16;19.60;91.40
16814;DHT22;8524;57.650;11.926;2023-05-19T15:12:45;19.60;91.90
16814;DHT22;8524;57.650;11.926;2023-05-19T15:15:13;19.70;87.00
16814;DHT22;8524;57.650;11.926;2023-05-19T15:17:41;19.40;92.70
16814;DHT22;8524;57.650;11.926;2023-05-19T15:20:11;19.40;90.80
16814;DHT22;8524;57.650;11.926;2023-05-19T15:22:41;19.20;95.40
16814;DHT22;8524;57.650;11.926;2023-05-19T15:25:08;19.30;94.10
16814;DHT22;8524;57.650;11.926;2023-05-19T15:27:35;19.10;96.70
16814;DHT22;8524;57.650;11.926;2023-05-19T15:30:03;19.20;94.20
16814;DHT22;8524;57.650;11.926;2023-05-19T15:32:31;19.70;93.00
16814;DHT22;8524;57.650;11.926;2023-05-19T15:34:58;20.00;91.60
16814;DHT22;8524;57.650;11.926;2023-05-19T15:37:25;20.00;90.90
16814;DHT22;8524;57.650;11.926;2023-05-19T15:39:52;20.20;91.00
16814;DHT22;8524;57.650;11.926;2023-05-19T15:42:20;20.10;91.80
16814;DHT22;8524;57.650;11.926;2023-05-19T15:44:47;19.70;90.10
16814;DHT22;8524;57.650;11.926;2023-05-19T15:47:14;19.50;93.90
16814;DHT22;8524;57.650;11.926;2023-05-19T15:49:42;19.40;99.90